createdAt,value
2024-05-09T00:00:40.344Z,12.89
2024-05-09T00:03:09.942Z,13.91
2024-05-09T00:05:38.822Z,13.11
2024-05-09T00:08:06.635Z,14.09
2024-05-09T00:10:37.383Z,13.50
2024-05-09T00:13:07.227Z,13.85
2024-05-09T00:15:35.446Z,12.85
2024-05-09T00:18:04.274Z,12.95
2024-05-09T00:20:37.974Z,12.88
2024-05-09T00:23:12.672Z,13.21
2024-05-09T00:25:43.205Z,12.99
2024-05-09T00:28:11.849Z,12.25
2024-05-09T00:30:38.877Z,13.00
2024-05-09T00:33:07.679Z,12.14
2024-05-09T00:35:36.295Z,12.71
2024-05-09T00:38:03.863Z,12.92
2024-05-09T00:40:41.502Z,12.00
2024-05-09T00:43:12.752Z,12.97
2024-05-09T00:45:40.989Z,12.70
2024-05-09T00:48:13.401Z,13.00
2024-05-09T00:50:45.993Z,11.71
2024-05-09T00:53:15.544Z,13.64
2024-05-09T00:55:44.493Z,12.55
2024-05-09T00:58:16.024Z,12.52
2024-05-09T01:00:43.342Z,13.79
2024-05-09T01:03:12.495Z,13.66
2024-05-09T01:05:42.158Z,13.71
2024-05-09T01:08:10.592Z,14.43
2024-05-09T01:10:38.500Z,13.72
2024-05-09T01:13:06.930Z,12.69
2024-05-09T01:15:34.751Z,13.86
2024-05-09T01:18:10.381Z,13.67
2024-05-09T01:20:42.325Z,14.16
2024-05-09T01:23:13.946Z,12.52
2024-05-09T01:25:42.776Z,13.15
2024-05-09T01:28:10.027Z,12.11
2024-05-09T01:30:37.967Z,15.13
2024-05-09T01:33:08.556Z,12.50
2024-05-09T01:35:38.601Z,12.85
2024-05-09T01:38:06.036Z,13.48
2024-05-09T01:40:37.953Z,13.77
2024-05-09T01:43:08.144Z,13.82
2024-05-09T01:45:35.897Z,13.71
2024-05-09T01:48:03.621Z,12.89
2024-05-09T01:53:00.987Z,13.61
2024-05-09T01:55:28.054Z,13.55
2024-05-09T01:57:55.021Z,12.85
2024-05-09T02:00:33.761Z,13.62
2024-05-09T02:03:09.674Z,13.62
2024-05-09T02:05:37.443Z,12.54
2024-05-09T02:08:05.577Z,13.56
2024-05-09T02:10:33.454Z,14.11
2024-05-09T02:13:01.032Z,13.54
2024-05-09T02:15:28.068Z,12.61
2024-05-09T02:17:57.469Z,12.77
2024-05-09T02:20:33.461Z,12.38
2024-05-09T02:23:05.041Z,13.21
2024-05-09T02:25:32.679Z,13.73
2024-05-09T02:27:59.938Z,12.61
2024-05-09T02:30:37.774Z,12.57
2024-05-09T02:33:09.137Z,12.07
2024-05-09T02:35:37.202Z,12.84
2024-05-09T02:38:04.499Z,13.53
2024-05-09T02:40:37.626Z,12.66
2024-05-09T02:43:07.343Z,12.89
2024-05-09T02:45:34.688Z,15.34
2024-05-09T02:48:02.307Z,12.85
2024-05-09T02:50:36.944Z,13.85
2024-05-09T02:53:10.679Z,13.89
2024-05-09T02:55:38.519Z,12.73
2024-05-09T02:58:08.315Z,13.74
2024-05-09T03:00:39.715Z,12.95
2024-05-09T03:03:14.626Z,12.57
2024-05-09T03:05:44.145Z,12.91
2024-05-09T03:08:11.741Z,12.73
2024-05-09T03:10:39.670Z,12.96
2024-05-09T03:13:15.487Z,12.46
2024-05-09T03:15:44.945Z,13.05
2024-05-09T03:18:12.779Z,13.21
2024-05-09T03:20:40.388Z,14.50
2024-05-09T03:23:09.395Z,13.46
2024-05-09T03:25:37.804Z,13.53
2024-05-09T03:28:05.115Z,13.33
2024-05-09T03:30:39.946Z,12.37
2024-05-09T03:33:10.882Z,13.57
2024-05-09T03:35:38.213Z,12.34
2024-05-09T03:38:05.263Z,11.29
2024-05-09T03:40:32.291Z,11.52
2024-05-09T03:42:59.316Z,12.02
2024-05-09T03:45:26.314Z,11.62
2024-05-09T03:47:53.629Z,11.64
2024-05-09T03:50:29.542Z,11.95
2024-05-09T03:53:03.663Z,10.91
2024-05-09T03:55:31.088Z,11.41
2024-05-09T03:57:58.396Z,11.03
2024-05-09T04:00:31.748Z,12.16
2024-05-09T04:03:07.294Z,11.55
2024-05-09T04:05:37.756Z,11.95
2024-05-09T04:08:05.645Z,12.11
2024-05-09T04:10:34.316Z,11.51
2024-05-09T04:13:03.560Z,12.05
2024-05-09T04:15:31.062Z,11.77
2024-05-09T04:17:58.399Z,12.41
2024-05-09T04:20:35.967Z,12.94
2024-05-09T04:23:08.294Z,12.68
2024-05-09T04:25:36.811Z,12.35
2024-05-09T04:28:03.970Z,13.90
2024-05-09T04:30:37.548Z,13.06
2024-05-09T04:33:10.300Z,12.51
2024-05-09T04:35:42.972Z,13.68
2024-05-09T04:38:11.107Z,13.89
2024-05-09T04:40:38.521Z,12.80
2024-05-09T04:43:06.792Z,13.82
2024-05-09T04:45:35.133Z,14.77
2024-05-09T04:48:03.027Z,12.27
2024-05-09T04:50:36.732Z,12.60
2024-05-09T04:53:10.590Z,12.79
2024-05-09T04:55:40.307Z,14.34
2024-05-09T04:58:09.085Z,13.29
2024-05-09T05:00:38.726Z,13.07
2024-05-09T05:03:13.904Z,14.00
2024-05-09T05:05:44.842Z,14.29
2024-05-09T05:08:17.985Z,16.24
2024-05-09T05:10:46.884Z,14.95
2024-05-09T05:13:22.586Z,14.39
2024-05-09T05:15:53.310Z,15.72
2024-05-09T05:18:21.829Z,18.49
2024-05-09T05:20:49.561Z,16.55
2024-05-09T05:23:19.358Z,16.06
2024-05-09T05:25:48.277Z,16.18
2024-05-09T05:28:16.720Z,17.28
2024-05-09T05:30:44.055Z,17.08
2024-05-09T05:33:13.322Z,16.89
2024-05-09T05:35:41.531Z,17.69
2024-05-09T05:38:10.202Z,17.70
2024-05-09T05:40:39.089Z,16.85
2024-05-09T05:43:09.107Z,16.93
2024-05-09T05:45:36.508Z,19.79
2024-05-09T05:48:05.894Z,22.30
2024-05-09T05:50:36.754Z,21.70
2024-05-09T05:53:07.686Z,20.13
2024-05-09T05:55:42.026Z,19.78
2024-05-09T05:58:10.467Z,20.26
2024-05-09T06:00:39.733Z,18.78
2024-05-09T06:03:09.608Z,21.69
2024-05-09T06:05:39.642Z,22.11
2024-05-09T06:08:07.373Z,20.57
2024-05-09T06:10:38.594Z,20.21
2024-05-09T06:13:10.322Z,22.23
2024-05-09T06:15:37.397Z,22.71
2024-05-09T06:18:09.565Z,23.35
2024-05-09T06:20:39.486Z,23.11
2024-05-09T06:23:07.341Z,23.94
2024-05-09T06:25:35.555Z,21.64
2024-05-09T06:28:03.010Z,22.07
2024-05-09T06:30:37.551Z,23.75
2024-05-09T06:33:08.969Z,22.14
2024-05-09T06:35:37.213Z,23.95
2024-05-09T06:38:04.860Z,23.43
2024-05-09T06:40:38.179Z,22.42
2024-05-09T06:43:13.348Z,21.05
2024-05-09T06:45:40.605Z,23.58
2024-05-09T06:48:09.232Z,23.46
2024-05-09T06:50:38.511Z,22.65
2024-05-09T06:53:07.895Z,16.45
2024-05-09T06:55:36.594Z,19.43
2024-05-09T06:58:06.405Z,20.43
2024-05-09T07:00:38.947Z,21.29
2024-05-09T07:03:14.750Z,21.31
2024-05-09T07:05:44.617Z,22.31
2024-05-09T07:08:13.931Z,23.66
2024-05-09T07:10:41.411Z,22.25
2024-05-09T07:13:12.837Z,21.77
2024-05-09T07:15:41.088Z,21.65
2024-05-09T07:18:20.193Z,20.71
2024-05-09T07:20:49.321Z,20.53
2024-05-09T07:23:17.781Z,21.38
2024-05-09T07:25:45.090Z,20.05
2024-05-09T07:28:18.803Z,21.97
2024-05-09T07:30:46.376Z,20.99
2024-05-09T07:33:22.194Z,20.26
2024-05-09T07:35:50.685Z,20.36
2024-05-09T07:38:17.820Z,21.80
2024-05-09T07:40:44.993Z,19.93
2024-05-09T07:43:12.844Z,21.08
2024-05-09T07:45:49.584Z,19.90
2024-05-09T07:52:38.433Z,20.85
2024-05-09T07:53:49.505Z,21.33
2024-05-09T07:56:22.113Z,21.25
2024-05-09T07:58:51.993Z,18.21
2024-05-09T08:01:19.934Z,18.90
2024-05-09T08:03:49.794Z,18.32
2024-05-09T08:06:17.140Z,19.09
2024-05-09T08:08:46.756Z,18.31
2024-05-09T08:11:13.863Z,19.75
2024-05-09T08:13:40.938Z,19.59
2024-05-09T08:16:09.610Z,18.89
2024-05-09T08:18:36.914Z,16.81
2024-05-09T08:21:04.211Z,18.29
2024-05-09T08:23:31.368Z,18.27
2024-05-09T08:25:58.401Z,16.41
2024-05-09T08:28:25.442Z,16.95
2024-05-09T08:30:52.750Z,17.23
2024-05-09T08:33:20.101Z,18.57
2024-05-09T08:35:47.228Z,18.59
2024-05-09T08:38:14.323Z,18.27
2024-05-09T08:40:41.551Z,18.45
2024-05-09T08:43:11.573Z,18.93
2024-05-09T08:45:44.756Z,16.21
2024-05-09T08:48:15.294Z,18.53
2024-05-09T08:50:44.998Z,18.11
2024-05-09T08:53:14.651Z,17.60
2024-05-09T08:55:43.786Z,17.01
2024-05-09T08:58:19.223Z,18.14
2024-05-09T09:00:47.380Z,18.35
2024-05-09T09:03:19.539Z,16.48
2024-05-09T09:06:05.719Z,16.73
2024-05-09T09:08:32.902Z,15.89
2024-05-09T09:11:00.003Z,16.27
2024-05-09T09:13:27.616Z,15.05
2024-05-09T09:15:58.480Z,16.70
2024-05-09T09:18:27.137Z,16.81
2024-05-09T09:20:55.313Z,16.37
2024-05-09T09:23:22.715Z,15.55
2024-05-09T09:25:50.122Z,16.30
2024-05-09T09:28:17.725Z,17.23
2024-05-09T09:30:45.883Z,16.05
2024-05-09T09:33:13.118Z,17.04
2024-05-09T09:35:42.341Z,17.27
2024-05-09T09:38:10.672Z,16.21
2024-05-09T09:40:49.538Z,16.99
2024-05-09T09:43:22.126Z,16.69
2024-05-09T09:45:52.985Z,15.27
2024-05-09T09:48:21.756Z,15.40
2024-05-09T09:50:51.347Z,16.41
2024-05-09T09:53:19.771Z,15.46
2024-05-09T09:55:48.213Z,16.55
2024-05-09T09:58:17.315Z,15.48
2024-05-09T10:00:45.148Z,16.41
2024-05-09T10:03:12.660Z,16.33
2024-05-09T10:05:43.046Z,16.43
2024-05-09T10:08:14.562Z,15.69
2024-05-09T10:10:47.315Z,16.76
2024-05-09T10:13:15.330Z,15.76
2024-05-09T10:15:46.458Z,14.02
2024-05-09T10:18:14.582Z,14.71
2024-05-09T10:20:46.324Z,14.47
2024-05-09T10:23:30.647Z,13.23
2024-05-09T10:26:01.802Z,13.53
2024-05-09T10:28:33.518Z,13.69
2024-05-09T10:31:11.530Z,13.30
2024-05-09T10:33:52.676Z,12.85
2024-05-09T10:36:22.382Z,12.23
2024-05-09T10:38:50.450Z,13.57
2024-05-09T10:41:18.672Z,12.97
2024-05-09T10:43:46.531Z,10.75
2024-05-09T10:46:14.735Z,12.18
2024-05-09T10:48:43.997Z,10.97
2024-05-09T10:51:11.580Z,12.33
2024-05-09T10:53:46.203Z,10.07
2024-05-09T10:56:14.727Z,11.37
2024-05-09T10:58:42.059Z,11.29
2024-05-09T11:01:09.781Z,11.23
2024-05-09T11:03:38.777Z,10.21
2024-05-09T11:06:07.155Z,11.85
2024-05-09T11:08:36.278Z,13.77
2024-05-09T11:11:07.168Z,12.43
2024-05-09T11:13:36.177Z,15.04
2024-05-09T11:16:05.199Z,14.28
2024-05-09T11:18:36.625Z,13.13
2024-05-09T11:21:13.425Z,14.04
2024-05-09T11:23:41.452Z,13.34
2024-05-09T11:26:10.300Z,13.65
2024-05-09T11:28:37.296Z,12.64
2024-05-09T11:31:09.664Z,13.97
2024-05-09T11:33:43.489Z,13.22
2024-05-09T11:36:10.855Z,11.49
2024-05-09T11:38:37.903Z,11.93
2024-05-09T11:41:05.488Z,14.57
2024-05-09T11:43:33.048Z,17.35
2024-05-09T11:46:01.125Z,15.69
2024-05-09T11:48:28.659Z,15.54
2024-05-09T11:50:56.723Z,14.90
2024-05-09T11:53:23.957Z,14.22
2024-05-09T11:55:50.947Z,13.91
2024-05-09T11:58:18.945Z,15.24
2024-05-09T12:00:47.120Z,15.72
2024-05-09T12:03:14.671Z,16.22
2024-05-09T12:05:42.304Z,16.05
2024-05-09T12:08:09.606Z,16.91
2024-05-09T12:10:37.385Z,17.10
2024-05-09T12:13:06.502Z,16.71
2024-05-09T12:15:38.277Z,14.38
2024-05-09T12:18:07.750Z,15.31
2024-05-09T12:20:38.858Z,16.32
2024-05-09T12:23:09.837Z,15.34
2024-05-09T12:25:39.287Z,15.80
2024-05-09T12:28:07.861Z,16.03
2024-05-09T12:30:38.771Z,15.47
2024-05-09T12:33:12.576Z,15.11
2024-05-09T12:35:44.010Z,14.51
2024-05-09T12:38:14.086Z,15.53
2024-05-09T12:40:41.592Z,15.90
2024-05-09T12:43:10.356Z,18.59
2024-05-09T12:45:38.743Z,18.18
2024-05-09T12:48:10.876Z,16.17
2024-05-09T12:50:41.522Z,16.57
2024-05-09T12:53:08.899Z,16.50
2024-05-09T12:55:44.135Z,16.35
2024-05-09T12:58:21.709Z,17.05
2024-05-09T13:00:48.861Z,18.25
2024-05-09T13:03:16.082Z,18.33
2024-05-09T13:05:46.276Z,17.48
2024-05-09T13:08:13.776Z,17.79
2024-05-09T13:10:41.147Z,17.81
2024-05-09T13:13:11.202Z,16.02
2024-05-09T13:15:38.973Z,16.92
2024-05-09T13:18:07.092Z,16.97
2024-05-09T13:20:36.585Z,18.31
2024-05-09T13:23:06.485Z,18.45
2024-05-09T13:25:35.111Z,17.67
2024-05-09T13:28:03.471Z,17.57
2024-05-09T13:30:39.096Z,17.31
2024-05-09T13:33:13.751Z,17.25
2024-05-09T13:35:46.943Z,18.77
2024-05-09T13:38:18.043Z,17.13
2024-05-09T13:40:45.451Z,18.73
2024-05-09T13:43:12.748Z,18.14
2024-05-09T13:45:39.919Z,17.24
2024-05-09T13:48:09.542Z,19.77
2024-05-09T13:50:37.275Z,18.91
2024-05-09T13:53:06.495Z,17.16
2024-05-09T13:55:35.368Z,18.81
2024-05-09T13:58:03.022Z,18.25
2024-05-09T14:00:42.088Z,19.75
2024-05-09T14:03:16.116Z,18.43
2024-05-09T14:05:44.200Z,18.47
2024-05-09T14:08:11.735Z,17.64
2024-05-09T14:10:44.005Z,17.17
2024-05-09T14:13:11.904Z,16.72
2024-05-09T14:15:39.019Z,16.56
2024-05-09T14:18:11.158Z,16.88
2024-05-09T14:20:40.208Z,17.43
2024-05-09T14:23:07.226Z,18.86
2024-05-09T14:25:38.700Z,18.37
2024-05-09T14:28:09.593Z,17.17
2024-05-09T14:30:38.373Z,16.86
2024-05-09T14:33:07.994Z,17.04
2024-05-09T14:35:37.180Z,17.53
2024-05-09T14:38:04.837Z,17.06
2024-05-09T14:40:40.441Z,17.98
2024-05-09T14:43:12.061Z,16.89
2024-05-09T14:45:39.772Z,18.35
2024-05-09T14:48:07.842Z,19.97
2024-05-09T14:50:38.520Z,19.23
2024-05-09T14:53:08.381Z,20.42
2024-05-09T14:55:37.351Z,17.23
2024-05-09T14:58:09.831Z,17.63
2024-05-09T15:00:41.496Z,18.73
2024-05-09T15:03:11.865Z,17.20
2024-05-09T15:05:39.261Z,19.68
2024-05-09T15:08:07.893Z,19.99
2024-05-09T15:10:36.648Z,19.12
2024-05-09T15:13:06.584Z,18.29
2024-05-09T15:15:35.340Z,20.70
2024-05-09T15:18:04.023Z,20.38
2024-05-09T15:20:35.402Z,24.73
2024-05-09T15:23:05.175Z,23.01
2024-05-09T15:25:36.261Z,24.41
2024-05-09T15:28:04.752Z,24.04
2024-05-09T15:30:33.736Z,24.07
2024-05-09T15:33:06.402Z,24.85
2024-05-09T15:35:34.675Z,26.97
2024-05-09T15:38:03.229Z,28.32
2024-05-09T15:40:37.818Z,24.38
2024-05-09T15:43:09.549Z,25.61
2024-05-09T15:45:38.385Z,25.77
2024-05-09T15:48:07.368Z,26.11
2024-05-09T15:50:39.078Z,29.49
2024-05-09T15:53:09.587Z,32.37
2024-05-09T15:55:38.270Z,29.49
2024-05-09T15:58:06.390Z,31.52
2024-05-09T16:00:38.742Z,28.12
2024-05-09T16:03:13.706Z,25.81
2024-05-09T16:05:45.753Z,27.09
2024-05-09T16:08:14.728Z,25.43
2024-05-09T16:10:48.280Z,25.47
2024-05-09T16:13:16.508Z,25.54
2024-05-09T16:15:44.191Z,29.31
2024-05-09T16:18:12.635Z,31.26
2024-05-09T16:20:42.137Z,29.21
2024-05-09T16:23:11.027Z,29.65
2024-05-09T16:25:39.320Z,31.29
2024-05-09T16:28:09.875Z,29.67
2024-05-09T16:30:38.865Z,29.97
2024-05-09T16:33:06.527Z,29.51
2024-05-09T16:35:34.588Z,29.50
2024-05-09T16:38:02.996Z,29.69
2024-05-09T16:40:37.431Z,30.03
2024-05-09T16:43:12.731Z,30.92
2024-05-09T16:45:43.846Z,32.82
2024-05-09T16:48:12.877Z,30.31
2024-05-09T16:50:40.083Z,28.30
2024-05-09T16:53:07.546Z,27.27
2024-05-09T16:55:35.559Z,29.77
2024-05-09T16:58:04.259Z,32.46
2024-05-09T17:00:39.784Z,32.27
2024-05-09T17:03:12.501Z,31.80
2024-05-09T17:05:40.750Z,33.55
2024-05-09T17:08:08.536Z,27.77
2024-05-09T17:10:36.524Z,29.69
2024-05-09T17:13:05.792Z,32.41
2024-05-09T17:15:34.585Z,30.77
2024-05-09T17:18:02.187Z,30.21
2024-05-09T17:20:33.894Z,32.14
2024-05-09T17:23:06.075Z,29.11
2024-05-09T17:25:33.938Z,29.74
2024-05-09T17:28:07.269Z,30.35
2024-05-09T17:30:38.162Z,30.00
2024-05-09T17:33:08.914Z,31.53
2024-05-09T17:35:37.556Z,31.71
2024-05-09T17:38:05.991Z,29.50
2024-05-09T17:40:36.201Z,30.23
2024-05-09T17:43:06.420Z,29.79
2024-05-09T17:45:35.007Z,28.91
2024-05-09T17:48:02.716Z,29.44
2024-05-09T17:50:35.656Z,30.33
2024-05-09T17:53:06.080Z,29.16
2024-05-09T17:55:33.514Z,28.51
2024-05-09T17:58:01.067Z,28.97
2024-05-09T18:00:36.582Z,30.21
2024-05-09T18:03:08.940Z,29.15
2024-05-09T18:05:37.236Z,27.23
2024-05-09T18:08:06.087Z,30.35
2024-05-09T18:10:37.228Z,32.43
2024-05-09T18:13:08.030Z,33.05
2024-05-09T18:15:36.336Z,30.00
2024-05-09T18:18:04.515Z,32.44
2024-05-09T18:20:40.410Z,31.45
2024-05-09T18:23:13.105Z,30.59
2024-05-09T18:25:40.256Z,31.85
2024-05-09T18:28:08.110Z,32.56
2024-05-09T18:30:36.832Z,30.71
2024-05-09T18:33:10.358Z,32.85
2024-05-09T18:35:38.019Z,28.95
2024-05-09T18:38:05.702Z,30.24
2024-05-09T18:40:36.351Z,30.34
2024-05-09T18:43:07.162Z,30.86
2024-05-09T18:45:37.501Z,31.89
2024-05-09T18:48:06.494Z,30.45
2024-05-09T18:50:37.836Z,31.53
2024-05-09T18:53:08.270Z,30.66
2024-05-09T18:55:35.941Z,32.30
2024-05-09T18:58:05.838Z,24.59
2024-05-09T19:00:36.862Z,32.39
2024-05-09T19:03:09.416Z,32.43
2024-05-09T19:05:39.007Z,30.54
2024-05-09T19:08:07.255Z,33.85
2024-05-09T19:10:35.769Z,31.86
2024-05-09T19:13:09.242Z,33.13
2024-05-09T19:15:40.480Z,30.76
2024-05-09T19:18:08.482Z,35.11
2024-05-09T19:20:36.715Z,34.03
2024-05-09T19:23:06.194Z,33.69
2024-05-09T19:25:34.314Z,34.69
2024-05-09T19:28:01.637Z,36.77
2024-05-09T19:30:37.244Z,30.80
2024-05-09T19:33:09.847Z,34.31
2024-05-09T19:35:38.012Z,31.85
2024-05-09T19:38:05.437Z,31.47
2024-05-09T19:40:34.184Z,32.99
2024-05-09T19:43:03.318Z,33.43
2024-05-09T19:45:32.664Z,33.15
2024-05-09T19:48:00.173Z,35.23
2024-05-09T19:50:36.811Z,33.69
2024-05-09T19:53:10.258Z,37.33
2024-05-09T19:55:37.783Z,39.29
2024-05-09T19:58:08.724Z,34.71
2024-05-09T20:00:40.315Z,33.61
2024-05-09T20:03:10.704Z,36.16
2024-05-09T20:05:38.505Z,34.12
2024-05-09T20:08:06.556Z,36.77
2024-05-09T20:10:35.659Z,36.84
2024-05-09T20:13:06.000Z,38.26
2024-05-09T20:15:35.682Z,38.87
2024-05-09T20:18:03.825Z,35.40
2024-05-09T20:20:37.685Z,34.24
2024-05-09T20:23:09.180Z,39.34
2024-05-09T20:25:36.632Z,40.90
2024-05-09T20:28:04.697Z,41.45
2024-05-09T20:30:35.748Z,39.75
2024-05-09T20:33:04.875Z,36.11
2024-05-09T20:35:33.486Z,33.89
2024-05-09T20:38:01.805Z,39.48
2024-05-09T20:40:34.015Z,41.05
2024-05-09T20:43:05.471Z,40.02
2024-05-09T20:45:32.998Z,37.18
2024-05-09T20:48:00.538Z,39.40
2024-05-09T20:50:36.379Z,39.48
2024-05-09T20:53:09.364Z,41.58
2024-05-09T20:55:36.627Z,38.41
2024-05-09T20:58:03.812Z,41.61
2024-05-09T21:00:39.240Z,40.82
2024-05-09T21:03:10.144Z,43.25
2024-05-09T21:05:37.526Z,41.11
2024-05-09T21:08:04.939Z,39.69
2024-05-09T21:10:33.732Z,41.21
2024-05-09T21:13:02.912Z,39.33
2024-05-09T21:15:31.074Z,39.37
2024-05-09T21:17:58.354Z,43.95
2024-05-09T21:20:31.124Z,42.37
2024-05-09T21:23:01.294Z,40.67
2024-05-09T21:25:28.762Z,39.57
2024-05-09T21:27:55.867Z,39.47
2024-05-09T21:30:32.509Z,37.44
2024-05-09T21:33:09.392Z,41.26
2024-05-09T21:35:37.800Z,37.29
2024-05-09T21:38:05.017Z,39.64
2024-05-09T21:40:35.144Z,43.71
2024-05-09T21:43:04.737Z,43.23
2024-05-09T21:45:32.472Z,45.40
2024-05-09T21:47:59.780Z,41.32
2024-05-09T21:50:35.789Z,50.60
2024-05-09T21:53:07.131Z,43.43
2024-05-09T21:55:34.503Z,45.38
2024-05-09T21:58:01.743Z,43.57
2024-05-09T22:00:35.770Z,48.18
2024-05-09T22:03:09.948Z,47.20
2024-05-09T22:05:39.149Z,48.36
2024-05-09T22:08:06.946Z,39.23
2024-05-09T22:10:36.171Z,48.58
2024-05-09T22:13:08.010Z,48.43
2024-05-09T22:15:37.569Z,50.87
2024-05-09T22:18:06.045Z,47.22
2024-05-09T22:20:37.552Z,48.33
2024-05-09T22:23:07.818Z,45.06
2024-05-09T22:25:35.735Z,44.51
2024-05-09T22:28:03.457Z,47.67
2024-05-09T22:30:36.060Z,45.88
2024-05-09T22:33:08.466Z,43.03
2024-05-09T22:35:36.533Z,44.02
2024-05-09T22:38:04.048Z,45.34
2024-05-09T22:40:41.714Z,44.99
2024-05-09T22:43:17.943Z,44.19
2024-05-09T22:45:46.113Z,43.41
2024-05-09T22:48:13.566Z,47.97
2024-05-09T22:50:40.880Z,43.02
2024-05-09T22:53:08.008Z,42.39
2024-05-09T22:55:35.080Z,40.69
2024-05-09T22:58:03.077Z,41.32
2024-05-09T23:00:32.326Z,42.04
2024-05-09T23:03:01.619Z,45.25
2024-05-09T23:05:29.464Z,43.32
2024-05-09T23:07:56.781Z,46.49
2024-05-09T23:10:31.580Z,50.17
2024-05-09T23:13:03.253Z,49.01
2024-05-09T23:15:30.503Z,46.54
2024-05-09T23:17:58.218Z,44.03
2024-05-09T23:20:35.842Z,47.82
2024-05-09T23:23:06.788Z,48.17
2024-05-09T23:25:34.185Z,43.85
2024-05-09T23:28:01.335Z,45.29
2024-05-09T23:30:36.043Z,44.63
2024-05-09T23:33:07.412Z,44.25
2024-05-09T23:35:34.760Z,45.03
2024-05-09T23:38:01.839Z,47.87
2024-05-09T23:42:58.777Z,44.21
2024-05-09T23:45:25.805Z,45.91
2024-05-09T23:47:53.206Z,43.23
2024-05-09T23:50:26.500Z,45.26
2024-05-09T23:53:00.174Z,46.16
2024-05-09T23:55:28.020Z,47.29
2024-05-09T23:57:55.371Z,48.25
